Latest Weather Observations for Lake Grace

IDW60801

Issued at 8:33 pm WST Saturday 16 December 2017 (issued every 30 minutes, with the page automatically refreshed every 10 minutes)

About weather observations | Map of weather stations | Latest weather observations for WA | Other Formats
Station Details ID: 010911 Name: LAKE GRACE Lat: -33.10 Lon: 118.46 Height: 286.0 m
Data from the previous 72 hours. | See also: Recent months at Lake Grace
Date/Time
WST
Temp
°C
App
Temp
°C
Dew
Point
°C
Rel
Hum
%
Delta-T
°C
Wind Press
QNH
hPa
Press
MSL
hPa
Rain since
9am
mm
Dir  Spd
km/h
Gust
km/h
Spd
kts
Gust
kts
16/08:30pm 25.0 20.3 6.2 30 9.9 WSW 20 35 11 19 1002.5 1001.3 0.0
16/08:00pm 26.1 20.0 6.7 29 10.3 WSW 28 39 15 21 1002.0 1000.9 0.0
16/07:30pm 27.8 22.2 5.4 24 11.7 W 24 39 13 21 1001.4 1000.2 0.0
16/07:00pm 29.1 23.5 5.2 22 12.6 WSW 24 39 13 21 1001.0 999.8 0.0
16/06:30pm 30.7 24.4 5.9 21 13.3 WSW 28 44 15 24 1000.6 999.4 0.0
16/06:00pm 33.0 27.5 3.9 16 15.4 WNW 22 35 12 19 1000.0 998.8 0.0
16/05:30pm 33.3 28.4 4.1 16 15.4 W 19 32 10 17 1000.0 998.8 0.0
16/05:00pm 33.4 29.3 4.2 16 15.6 W 15 26 8 14 1000.1 998.9 0.0
16/04:30pm 33.8 28.4 4.5 16 15.6 W 22 33 12 18 1000.4 999.2 0.0
16/04:00pm 33.9 29.5 4.6 16 15.8 WSW 17 28 9 15 1000.7 999.5 0.0
16/03:30pm 32.9 27.9 4.6 17 15.1 WNW 20 30 11 16 1001.1 999.9 0.0
16/03:00pm 33.5 29.2 5.1 17 15.4 WNW 17 35 9 19 1001.7 1000.6 0.0
16/02:44pm 34.0 29.6 4.6 16 15.7 W 17 39 9 21 1001.9 1000.8 0.0
16/02:30pm 32.1 29.9 6.3 20 14.1 W 7 13 4 7 1002.2 1001.0 0.0
16/02:00pm 31.2 27.7 7.0 22 13.3 WSW 15 24 8 13 1002.9 1001.7 0.0
16/01:30pm 31.3 29.1 7.7 23 13.1 NNW 9 15 5 8 1003.5 1002.3 0.0
16/01:00pm 30.9 27.1 7.4 23 13.0 SW 17 28 9 15 1004.1 1002.9 0.0
16/12:30pm 30.4 27.4 7.6 24 12.6 WSW 13 20 7 11 1004.3 1003.1 0.0
16/12:00pm 29.4 27.1 9.0 28 11.5 S 11 19 6 10 1004.8 1003.7 0.0
16/11:30am 28.6 27.1 9.3 30 10.8 SSE 7 15 4 8 1005.2 1004.1 0.0
16/11:00am 28.0 26.3 9.8 32 10.3 SSE 9 17 5 9 1005.9 1004.7 0.0
16/10:30am 27.2 25.3 10.4 35 9.6 ESE 11 17 6 9 1006.3 1005.1 0.0
16/10:00am 25.6 22.7 9.8 37 8.8 SSE 15 24 8 13 1006.8 1005.6 0.0
16/09:30am 25.1 23.0 11.3 42 7.9 E 13 20 7 11 1007.2 1006.0 0.0
16/09:00am 23.4 20.9 11.1 46 7.0 SE 15 28 8 15 1007.7 1006.5 0.0
16/08:30am 21.8 19.3 11.2 51 5.9 SE 15 20 8 11 1008.1 1007.0 0.0
16/08:00am 20.6 17.9 11.8 57 5.0 ESE 17 24 9 13 1008.6 1007.5 0.0
16/07:30am 19.3 16.8 12.3 64 4.0 SE 17 22 9 12 1009.0 1007.9 0.0
16/07:00am 18.0 15.8 12.2 69 3.3 SE 15 22 8 12 1009.1 1008.0 0.0
16/06:30am 16.9 15.0 13.0 78 2.2 SSE 15 22 8 12 1009.1 1008.0 0.0
16/06:00am 15.5 13.9 12.8 84 1.5 SSE 13 19 7 10 1009.6 1008.4 0.0
16/05:30am 14.5 13.6 12.5 88 1.1 S 9 13 5 7 1009.8 1008.6 0.0
16/05:00am 13.9 13.2 12.1 89 1.0 SSE 7 11 4 6 1009.7 1008.5 0.0
16/04:30am 14.0 12.9 12.0 88 1.1 SSE 9 15 5 8 1009.4 1008.3 0.0
16/04:00am 14.0 12.9 11.9 87 1.1 SSE 9 17 5 9 1009.7 1008.5 0.0
16/03:30am 14.2 13.1 11.9 86 1.3 SE 9 13 5 7 1009.8 1008.6 0.0
16/03:00am 14.6 13.5 11.9 84 1.5 SE 9 15 5 8 1009.8 1008.6 0.0
16/02:30am 14.7 13.6 11.8 83 1.6 SE 9 13 5 7 1010.0 1008.8 0.0
16/02:00am 15.1 13.7 12.1 82 1.7 SE 11 19 6 10 1010.2 1009.0 0.0
16/01:30am 15.3 13.9 12.1 81 1.8 SE 11 17 6 9 1010.7 1009.5 0.0
16/01:00am 15.6 13.4 12.0 79 2.0 ESE 15 24 8 13 1011.1 1010.0 0.0
16/12:30am 15.8 14.0 12.2 79 2.0 ESE 13 20 7 11 1011.5 1010.4 0.0
16/12:00am 16.0 13.5 12.2 78 2.1 ESE 17 24 9 13 1011.8 1010.7 0.0
 
Date/Time
WST
Temp
°C
App
Temp
°C
Dew
Point
°C
Rel
Hum
%
Delta-T
°C
Wind Press
QNH
hPa
Press
MSL
hPa
Rain since
9am
mm
Dir  Spd
km/h
Gust
km/h
Spd
kts
Gust
kts
15/11:30pm 16.1 13.5 12.1 77 2.2 ESE 17 28 9 15 1011.9 1010.8 0.0
15/11:00pm 16.5 13.0 12.1 75 2.4 ESE 22 35 12 19 1012.2 1011.1 0.0
15/10:30pm 17.0 13.8 11.9 72 2.8 ESE 20 33 11 18 1012.2 1011.1 0.0
15/10:00pm 17.5 13.6 12.0 70 3.1 SE 24 35 13 19 1012.3 1011.2 0.0
15/09:30pm 18.3 14.7 11.8 66 3.6 SE 22 33 12 18 1011.8 1010.7 0.0
15/09:00pm 19.2 15.3 12.0 63 4.1 SE 24 35 13 19 1011.3 1010.2 0.0
15/08:30pm 20.4 16.7 11.6 57 4.9 SE 22 32 12 17 1010.9 1009.8 0.0
15/08:00pm 21.9 18.1 11.3 51 6.0 SE 22 33 12 18 1010.7 1009.5 0.0
15/07:30pm 23.7 19.8 10.7 44 7.3 SE 22 37 12 20 1010.5 1009.3 0.0
15/07:00pm 25.4 21.3 10.1 38 8.6 SE 22 35 12 19 1010.1 1008.9 0.0
15/06:30pm 28.7 23.8 4.2 21 12.6 S 19 28 10 15 1009.3 1008.2 0.0
15/06:00pm 29.9 26.6 6.5 23 12.7 S 13 19 7 10 1009.1 1008.0 0.0
15/05:30pm 30.4 26.8 4.9 20 13.4 S 13 20 7 11 1009.0 1007.9 0.0
15/05:00pm 30.5 26.1 6.4 22 13.1 S 19 32 10 17 1008.9 1007.8 0.0
15/04:30pm 30.6 27.6 5.8 21 13.3 SW 11 19 6 10 1009.1 1008.0 0.0
15/04:00pm 30.7 27.3 5.9 21 13.3 SSW 13 19 7 10 1009.2 1008.1 0.0
15/03:30pm 30.5 27.2 6.4 22 13.0 SSW 13 22 7 12 1009.4 1008.3 0.0
15/03:00pm 30.8 28.7 6.6 22 13.2 SSE 7 15 4 8 1009.6 1008.4 0.0
15/02:30pm 30.2 26.9 4.8 20 13.4 WSW 11 19 6 10 1010.0 1008.8 0.0
15/02:00pm 29.9 26.5 5.9 22 12.9 WSW 13 20 7 11 1010.2 1009.0 0.0
15/01:30pm 30.0 26.7 6.6 23 12.7 SW 13 24 7 13 1010.8 1009.7 0.0
15/01:00pm 29.5 27.0 8.0 26 11.9 W 11 17 6 9 1011.1 1010.0 0.0
15/12:30pm 28.7 26.5 7.9 27 11.4 WNW 9 19 5 10 1011.6 1010.5 0.0
15/12:00pm 27.9 25.8 8.2 29 10.8 WSW 9 15 5 8 1012.0 1010.9 0.0
15/11:30am 26.8 25.0 9.6 34 9.6 WSW 9 15 5 8 1012.5 1011.4 0.0
15/11:00am 26.1 24.8 9.9 36 9.1 SSE 7 13 4 7 1012.9 1011.8 0.0
15/10:30am 25.1 24.0 10.6 40 8.2 NNE 7 11 4 6 1013.3 1012.1 0.0
15/10:00am 23.9 23.0 11.3 45 7.2 ESE 7 13 4 7 1013.7 1012.5 0.0
15/09:30am 22.8 21.1 11.2 48 6.5 NE 11 15 6 8 1013.9 1012.8 0.0
15/09:00am 21.7 20.1 11.7 53 5.7 E 11 17 6 9 1014.5 1013.4 0.0
15/08:30am 20.7 19.3 12.1 58 4.9 ESE 11 19 6 10 1014.8 1013.7 0.0
15/08:00am 19.7 18.4 12.5 63 4.1 ESE 11 17 6 9 1015.1 1014.0 0.0
15/07:30am 18.3 16.4 11.8 66 3.6 ESE 13 17 7 9 1015.1 1014.0 0.0
15/07:00am 17.3 15.3 11.6 69 3.1 ESE 13 19 7 10 1015.3 1014.2 0.0
15/06:30am 16.6 14.6 11.5 72 2.8 ESE 13 17 7 9 1015.5 1014.4 0.0
15/06:00am 15.7 13.8 11.7 77 2.2 ESE 13 19 7 10 1015.2 1014.1 0.0
15/05:30am 14.9 12.8 11.3 79 2.0 ESE 13 19 7 10 1015.3 1014.2 0.0
15/05:00am 14.6 12.5 11.2 80 1.8 ESE 13 20 7 11 1015.3 1014.2 0.0
15/04:30am 14.3 12.2 11.3 82 1.6 SE 13 20 7 11 1015.1 1014.0 0.0
15/04:00am 13.2 11.7 10.6 84 1.4 SE 9 13 5 7 1015.0 1013.9 0.0
15/03:30am 13.5 12.0 10.5 82 1.6 SSE 9 15 5 8 1014.8 1013.7 0.0
15/03:00am 13.6 12.1 10.6 82 1.6 SE 9 11 5 6 1014.8 1013.7 0.0
15/02:30am 13.9 12.1 10.7 81 1.7 SE 11 15 6 8 1014.8 1013.7 0.0
15/02:00am 14.2 12.3 10.6 79 1.9 SE 11 17 6 9 1014.6 1013.5 0.0
15/01:30am 14.4 12.1 10.6 78 2.0 SE 13 22 7 12 1014.6 1013.5 0.0
15/01:00am 14.6 12.7 10.6 77 2.1 SE 11 19 6 10 1015.0 1013.9 0.0
15/12:30am 15.1 12.6 10.9 76 2.3 SE 15 22 8 12 1015.4 1014.3 0.0
15/12:00am 15.4 13.6 11.0 75 2.4 SE 11 22 6 12 1015.5 1014.4 0.0
 
Date/Time
WST
Temp
°C
App
Temp
°C
Dew
Point
°C
Rel
Hum
%
Delta-T
°C
Wind Press
QNH
hPa
Press
MSL
hPa
Rain since
9am
mm
Dir  Spd
km/h
Gust
km/h
Spd
kts
Gust
kts
14/11:30pm 15.7 13.6 11.3 75 2.4 SSE 13 20 7 11 1015.8 1014.7 0.0
14/11:00pm 15.9 13.8 11.1 73 2.6 SSE 13 19 7 10 1015.8 1014.7 0.0
14/10:30pm 16.6 13.9 11.7 73 2.7 SE 17 28 9 15 1015.9 1014.8 0.0
14/10:00pm 17.3 14.1 11.8 70 3.0 SE 20 28 11 15 1016.0 1014.9 0.0
14/09:30pm 18.2 14.2 11.7 66 3.6 SE 24 37 13 20 1015.8 1014.7 0.0
14/09:00pm 19.3 16.1 11.8 62 4.2 SE 20 32 11 17 1015.6 1014.5 0.0
14/08:30pm 20.8 17.2 11.7 56 5.1 SE 22 35 12 19 1015.2 1014.1 0.0
14/08:00pm 22.1 19.0 11.5 51 6.0 SE 19 35 10 19 1014.7 1013.6 0.0
14/07:30pm 25.6 22.9 2.9 23 11.2 SW 6 9 3 5 1014.1 1013.0 0.0
14/07:00pm 26.7 23.9 3.2 22 11.8 SSW 7 9 4 5 1014.0 1012.9 0.0
14/06:30pm 27.8 24.3 3.5 21 12.3 SSW 11 17 6 9 1013.8 1012.6 0.0
14/06:00pm 28.3 25.5 5.2 23 12.1 SSW 9 17 5 9 1013.6 1012.4 0.0
14/05:30pm 28.2 25.4 5.1 23 12.1 WSW 9 15 5 8 1013.5 1012.3 0.0
14/05:00pm 28.2 24.6 5.1 23 12.1 SSW 13 20 7 11 1013.3 1012.1 0.0
14/04:30pm 28.4 25.9 6.5 25 11.7 NNW 9 17 5 9 1013.4 1012.2 0.0
14/04:00pm 27.8 25.3 6.6 26 11.3 SW 9 15 5 8 1013.7 1012.5 0.0
14/03:30pm 28.3 26.0 7.5 27 11.3 SSW 9 17 5 9 1014.1 1013.0 0.0
14/03:00pm 26.9 24.9 6.9 28 10.7 W 7 13 4 7 1014.2 1013.1 0.0
14/02:30pm 26.7 23.6 7.2 29 10.5 WSW 13 20 7 11 1014.6 1013.5 0.0
14/02:00pm 25.8 23.4 6.9 30 10.0 N 9 19 5 10 1015.0 1013.9 0.0
14/01:30pm 25.1 22.3 6.8 31 9.7 SW 11 17 6 9 1015.5 1014.4 0.0
14/01:00pm 24.8 22.6 7.9 34 9.1 N 9 15 5 8 1015.9 1014.8 0.0
14/12:30pm 24.2 21.4 6.9 33 9.1 NNW 11 20 6 11 1016.3 1015.2 0.0
14/12:00pm 23.4 21.4 8.7 39 7.9 NNW 9 17 5 9 1017.0 1015.9 0.0
14/11:30am 23.0 21.5 9.0 41 7.6 N 7 17 4 9 1017.4 1016.3 0.0
14/11:00am 21.8 20.0 9.3 45 6.8 NNW 9 19 5 10 1017.7 1016.6 0.0
14/10:30am 21.4 20.0 9.6 47 6.4 N 7 11 4 6 1018.1 1017.0 0.0
14/10:00am 20.5 18.8 10.0 51 5.7 E 9 17 5 9 1018.5 1017.4 0.0
14/09:30am 19.2 17.5 9.7 54 5.1 NW 9 13 5 7 1018.7 1017.6 0.0
14/09:00am 19.2 17.6 10.2 56 4.9 ENE 9 15 5 8 1018.9 1017.8 0.0
14/08:30am 18.0 16.8 10.4 61 4.1 N 7 11 4 6 1019.3 1018.2 0.0
14/08:00am 17.6 17.0 10.5 63 3.8 NE 4 13 2 7 1019.5 1018.4 0.0
14/07:30am 17.5 16.6 11.3 67 3.4 ESE 7 11 4 6 1019.5 1018.4 0.0
14/07:00am 16.0 14.9 10.5 70 2.9 SSE 7 11 4 6 1019.4 1018.3 0.0
14/06:30am 16.0 15.2 11.0 72 2.7 ESE 6 9 3 5 1019.4 1018.3 0.0
14/06:00am 14.2 14.3 10.2 77 2.1 CALM 0 0 0 0 1019.3 1018.2 0.0
14/05:30am 12.5 12.4 9.5 82 1.5 CALM 0 0 0 0 1019.0 1017.9 0.0
14/05:00am 11.3 11.0 8.5 83 1.4 CALM 0 0 0 0 1018.9 1017.8 0.0
14/04:30am 11.6 11.0 8.8 83 1.4 SSE 2 7 1 4 1018.7 1017.6 0.0
14/04:00am 12.0 11.8 9.0 82 1.5 CALM 0 0 0 0 1018.6 1017.5 0.0
14/03:30am 12.3 12.1 9.1 81 1.6 CALM 0 0 0 0 1018.5 1017.4 0.0
14/03:00am 12.5 12.3 9.1 80 1.7 CALM 0 0 0 0 1018.3 1017.2 0.0
14/02:30am 12.8 11.5 9.3 79 1.8 S 6 7 3 4 1018.1 1017.0 0.0
14/02:00am 12.8 12.7 9.3 79 1.8 CALM 0 0 0 0 1018.1 1017.0 0.0
14/01:30am 13.2 12.0 9.5 78 1.9 SSE 6 7 3 4 1018.2 1017.1 0.0
14/01:00am 13.5 12.1 9.4 76 2.1 SE 7 11 4 6 1018.4 1017.3 0.0
14/12:30am 14.0 12.2 9.4 74 2.4 SE 9 13 5 7 1018.3 1017.2 0.0
14/12:00am 14.3 12.1 9.3 72 2.6 SE 11 15 6 8 1018.6 1017.5 0.0
 
Date/Time
WST
Temp
°C
App
Temp
°C
Dew
Point
°C
Rel
Hum
%
Delta-T
°C
Wind Press
QNH
hPa
Press
MSL
hPa
Rain since
9am
mm
Dir  Spd
km/h
Gust
km/h
Spd
kts
Gust
kts
13/11:30pm 14.7 12.1 9.3 70 2.8 SE 13 19 7 10 1018.8 1017.7 0.0
13/11:00pm 15.2 11.8 9.1 67 3.2 SE 17 24 9 13 1018.7 1017.6 0.0
13/10:30pm 15.9 12.9 9.1 64 3.6 SE 15 22 8 12 1018.8 1017.7 0.0
13/10:00pm 16.6 13.1 8.8 60 4.1 SE 17 24 9 13 1018.7 1017.6 0.0
13/09:30pm 17.4 13.8 8.5 56 4.6 ESE 17 22 9 12 1018.5 1017.4 0.0
13/09:00pm 18.4 15.3 7.2 48 5.7 SE 13 22 7 12 1018.3 1017.2 0.0

Other Formats:

Comma delimited format used in spreadsheet applications
http://www.bom.gov.au/fwo/IDW60801/IDW60801.95637.axf

JavaScript Object Notation format (JSON) in row-major order
http://www.bom.gov.au/fwo/IDW60801/IDW60801.95637.json